Pompano Beach, FL

9:27 PM EST on February 06, 2016 (GMT -0500)
Pompano Beach | | Change Station
CLOSE
Current Station
Airport
Location: Pompano Beach,
Elevation: 20 ft
Nearby Weather Stations

Elev 20 ft 26.25 °N, 80.11 °W | Updated 34 minutes ago

Light Rain
Light Rain
63 °F
Feels Like 63 °F
N
18
Wind Variable Wind from WNW
Gusts 25 mph

Today
High -- | Low -- °F
--% Chance of Precip.
Yesterday
High -- | Low -- °F
Precip. -- in
Pressure 30.03 in
Visibility 10.0 miles
Clouds Overcast 700 ft
Dew Point 63 °F
Humidity 100%
Rainfall 0.08 in
Snow Depth Not available.
7:02 AM 6:06 PM
Waning Crescent, 3% visible
METAR KPMP 070153Z AUTO 29016G22KT 10SM -RA OVC007 17/17 A3003 RMK AO2 SLP168 P0002 T01720172
Pressure 30.03 in
Visibility 10.0 miles
Clouds Overcast 700 ft
Dew Point 63 °F
Humidity 100%
Rainfall 0.08 in
Snow Depth Not available.
7:02 AM 6:06 PM
Waning Crescent, 3% visible
METAR KPMP 070153Z AUTO 29016G22KT 10SM -RA OVC007 17/17 A3003 RMK AO2 SLP168 P0002 T01720172

10-Day Weather Forecast

Almanac

Astronomy

Feb. 06, 2016 Rise Set
Actual Time
Civil Twilight
Nautical Twilight
Astronomical Twilight
Moon
Length of Visible Light
Length of Day
Tomorrow will be .
, % of the Moon is Illuminated

Today's Extremes

State Highs State Lows

Community

WunderPhotos

Upload Photos

1,891,139 photos uploaded!

WunderBlog® & News

Nearby

Air Quality

  Air Quality AQ Index Pollutant
Not available.

Snow Depth

Station Depth Elevation

Earthquake Activity

City Distance Mag. Time & Date
Minimum magnitude displayed is 2.5.

Coastal Water Temperatures

Place Temperature

Stations

Nearby Weather Stations

Station Location Temp. Windchill Dew Point Humidity Wind Precip. Elev Updated Type
                   

Watches & Warnings

There are currently no watches in effect.